Helmuth, New York
Current Conditions -  °F | °C
As of 5:53 AM on Friday 28 Nov 2014 (Local Time) from KDKK Reporting Station
Overcast Overcast  
Wind Chill: 12°   Ceiling: 4000
Heat Index: 26°   Visibility: 10mi
Dew Point: 12°   Wind: 20mph
Humidity: 55%   Direction: 270°W
Pressure: 30.25"   Gusts: 28mph
Location:  42.4964°N, 78.8604°W
Report Text: KDKK 281053Z AUTO 27017G24KT 10SM OVC040 M03/M11 A3025 RMK AO2 SLP252 T10331111
Loading
Personal Weather Stations






























Interactive Weather Map New forecast layout! Learn more

10-Day Weather Forecast

Advertisements
Track Severe Weather on mobile